sensor_id;sensor_type;location;lat;lon;timestamp;temperature;humidity
69393;SHT31;56582;44.624;20.378;2023-02-08T00:00:33;-2.30;77.01
69393;SHT31;56582;44.624;20.378;2023-02-08T00:02:58;-2.30;77.04
69393;SHT31;56582;44.624;20.378;2023-02-08T00:05:24;-2.40;77.33
69393;SHT31;56582;44.624;20.378;2023-02-08T00:07:49;-2.34;77.26
69393;SHT31;56582;44.624;20.378;2023-02-08T00:10:15;-2.48;77.92
69393;SHT31;56582;44.624;20.378;2023-02-08T00:12:40;-2.31;77.35
69393;SHT31;56582;44.624;20.378;2023-02-08T00:15:06;-2.31;77.24
69393;SHT31;56582;44.624;20.378;2023-02-08T00:17:31;-2.24;77.08
69393;SHT31;56582;44.624;20.378;2023-02-08T00:19:57;-2.51;77.08
69393;SHT31;56582;44.624;20.378;2023-02-08T00:22:22;-2.47;77.16
69393;SHT31;56582;44.624;20.378;2023-02-08T00:24:49;-2.75;78.27
69393;SHT31;56582;44.624;20.378;2023-02-08T00:27:15;-2.72;78.61
69393;SHT31;56582;44.624;20.378;2023-02-08T00:29:41;-2.86;78.14
69393;SHT31;56582;44.624;20.378;2023-02-08T00:32:07;-3.01;78.55
69393;SHT31;56582;44.624;20.378;2023-02-08T00:34:35;-2.88;78.08
69393;SHT31;56582;44.624;20.378;2023-02-08T00:37:01;-3.00;78.47
69393;SHT31;56582;44.624;20.378;2023-02-08T00:39:26;-3.17;78.01
69393;SHT31;56582;44.624;20.378;2023-02-08T00:41:51;-3.13;78.37
69393;SHT31;56582;44.624;20.378;2023-02-08T00:44:17;-3.21;78.85
69393;SHT31;56582;44.624;20.378;2023-02-08T00:46:43;-3.31;78.57
69393;SHT31;56582;44.624;20.378;2023-02-08T00:49:08;-3.36;78.86
69393;SHT31;56582;44.624;20.378;2023-02-08T00:51:34;-3.48;79.35
69393;SHT31;56582;44.624;20.378;2023-02-08T00:53:59;-3.48;79.76
69393;SHT31;56582;44.624;20.378;2023-02-08T00:56:24;-3.48;80.09
69393;SHT31;56582;44.624;20.378;2023-02-08T00:58:50;-3.59;80.14
69393;SHT31;56582;44.624;20.378;2023-02-08T01:01:15;-3.61;80.25
69393;SHT31;56582;44.624;20.378;2023-02-08T01:03:42;-3.65;80.25
69393;SHT31;56582;44.624;20.378;2023-02-08T01:06:12;-3.54;80.20
69393;SHT31;56582;44.624;20.378;2023-02-08T01:08:38;-3.50;79.99
69393;SHT31;56582;44.624;20.378;2023-02-08T01:11:09;-3.09;78.75
69393;SHT31;56582;44.624;20.378;2023-02-08T01:13:36;-2.66;77.87
69393;SHT31;56582;44.624;20.378;2023-02-08T01:16:22;-2.83;77.37
69393;SHT31;56582;44.624;20.378;2023-02-08T01:18:49;-2.93;78.39
69393;SHT31;56582;44.624;20.378;2023-02-08T01:21:17;-3.04;84.10
69393;SHT31;56582;44.624;20.378;2023-02-08T01:23:43;-2.45;90.63
69393;SHT31;56582;44.624;20.378;2023-02-08T01:26:10;-2.41;86.92
69393;SHT31;56582;44.624;20.378;2023-02-08T01:28:37;-2.64;80.98
69393;SHT31;56582;44.624;20.378;2023-02-08T01:31:09;-3.04;79.58
69393;SHT31;56582;44.624;20.378;2023-02-08T01:33:35;-2.86;79.39
69393;SHT31;56582;44.624;20.378;2023-02-08T01:36:01;-2.96;78.93
69393;SHT31;56582;44.624;20.378;2023-02-08T01:38:26;-2.92;78.77
69393;SHT31;56582;44.624;20.378;2023-02-08T01:40:52;-2.66;78.40
69393;SHT31;56582;44.624;20.378;2023-02-08T01:43:25;-2.68;77.97
69393;SHT31;56582;44.624;20.378;2023-02-08T01:45:51;-2.58;77.90
69393;SHT31;56582;44.624;20.378;2023-02-08T01:48:21;-2.54;78.08
69393;SHT31;56582;44.624;20.378;2023-02-08T01:51:00;-2.62;77.90
69393;SHT31;56582;44.624;20.378;2023-02-08T01:53:27;-2.58;77.82
69393;SHT31;56582;44.624;20.378;2023-02-08T01:55:56;-2.44;77.61
69393;SHT31;56582;44.624;20.378;2023-02-08T01:58:24;-2.47;77.93
69393;SHT31;56582;44.624;20.378;2023-02-08T02:00:50;-2.45;77.91
69393;SHT31;56582;44.624;20.378;2023-02-08T02:03:18;-2.47;77.68
69393;SHT31;56582;44.624;20.378;2023-02-08T02:05:48;-2.78;78.07
69393;SHT31;56582;44.624;20.378;2023-02-08T02:08:14;-2.79;78.23
69393;SHT31;56582;44.624;20.378;2023-02-08T02:10:41;-2.66;77.97
69393;SHT31;56582;44.624;20.378;2023-02-08T02:13:21;-2.70;77.92
69393;SHT31;56582;44.624;20.378;2023-02-08T02:15:48;-2.82;77.84
69393;SHT31;56582;44.624;20.378;2023-02-08T02:18:21;-2.65;77.00
69393;SHT31;56582;44.624;20.378;2023-02-08T02:34:51;-2.64;77.45
69393;SHT31;56582;44.624;20.378;2023-02-08T02:40:23;-2.61;77.70
69393;SHT31;56582;44.624;20.378;2023-02-08T02:46:05;-3.30;79.68
69393;SHT31;56582;44.624;20.378;2023-02-08T02:48:44;-3.16;79.54
69393;SHT31;56582;44.624;20.378;2023-02-08T02:56:28;-3.43;80.58
69393;SHT31;56582;44.624;20.378;2023-02-08T02:58:57;-3.38;80.72
69393;SHT31;56582;44.624;20.378;2023-02-08T03:01:23;-3.18;80.39
69393;SHT31;56582;44.624;20.378;2023-02-08T03:03:51;-3.09;79.93
69393;SHT31;56582;44.624;20.378;2023-02-08T03:06:27;-2.92;79.37
69393;SHT31;56582;44.624;20.378;2023-02-08T03:11:56;-2.93;79.86
69393;SHT31;56582;44.624;20.378;2023-02-08T03:14:45;-2.73;79.85
69393;SHT31;56582;44.624;20.378;2023-02-08T03:20:25;-2.79;79.95
69393;SHT31;56582;44.624;20.378;2023-02-08T03:22:54;-2.47;78.59
69393;SHT31;56582;44.624;20.378;2023-02-08T03:25:30;-2.78;78.77
69393;SHT31;56582;44.624;20.378;2023-02-08T03:31:00;-3.11;79.76
69393;SHT31;56582;44.624;20.378;2023-02-08T03:33:37;-3.04;79.91
69393;SHT31;56582;44.624;20.378;2023-02-08T03:36:43;-3.14;80.08
69393;SHT31;56582;44.624;20.378;2023-02-08T03:39:15;-3.30;81.01
69393;SHT31;56582;44.624;20.378;2023-02-08T03:41:44;-3.26;80.79
69393;SHT31;56582;44.624;20.378;2023-02-08T03:44:15;-3.31;81.08
69393;SHT31;56582;44.624;20.378;2023-02-08T03:46:55;-3.20;81.11
69393;SHT31;56582;44.624;20.378;2023-02-08T03:49:24;-3.16;80.98
69393;SHT31;56582;44.624;20.378;2023-02-08T03:51:55;-2.76;80.56
69393;SHT31;56582;44.624;20.378;2023-02-08T03:54:24;-2.92;79.74
69393;SHT31;56582;44.624;20.378;2023-02-08T03:59:32;-3.23;81.49
69393;SHT31;56582;44.624;20.378;2023-02-08T04:02:01;-3.26;82.15
69393;SHT31;56582;44.624;20.378;2023-02-08T04:04:31;-3.28;82.08
69393;SHT31;56582;44.624;20.378;2023-02-08T04:06:57;-3.33;82.56
69393;SHT31;56582;44.624;20.378;2023-02-08T04:09:22;-3.28;82.54
69393;SHT31;56582;44.624;20.378;2023-02-08T04:11:48;-3.27;83.00
69393;SHT31;56582;44.624;20.378;2023-02-08T04:14:13;-2.99;86.45
69393;SHT31;56582;44.624;20.378;2023-02-08T04:16:39;-3.03;82.57
69393;SHT31;56582;44.624;20.378;2023-02-08T04:19:04;-2.65;84.32
69393;SHT31;56582;44.624;20.378;2023-02-08T04:21:30;-2.76;81.50
69393;SHT31;56582;44.624;20.378;2023-02-08T04:23:56;-2.69;81.40
69393;SHT31;56582;44.624;20.378;2023-02-08T04:26:21;-2.80;82.26
69393;SHT31;56582;44.624;20.378;2023-02-08T04:28:47;-3.18;82.60
69393;SHT31;56582;44.624;20.378;2023-02-08T04:31:12;-3.07;83.28
69393;SHT31;56582;44.624;20.378;2023-02-08T04:33:37;-3.26;83.12
69393;SHT31;56582;44.624;20.378;2023-02-08T04:36:03;-3.21;82.85
69393;SHT31;56582;44.624;20.378;2023-02-08T04:38:29;-3.18;82.76
69393;SHT31;56582;44.624;20.378;2023-02-08T04:40:54;-3.33;83.51
69393;SHT31;56582;44.624;20.378;2023-02-08T04:43:19;-3.38;83.70
69393;SHT31;56582;44.624;20.378;2023-02-08T04:45:45;-3.20;83.27
69393;SHT31;56582;44.624;20.378;2023-02-08T04:48:14;-3.38;83.44
69393;SHT31;56582;44.624;20.378;2023-02-08T04:50:39;-3.47;83.92
69393;SHT31;56582;44.624;20.378;2023-02-08T04:53:05;-3.20;83.44
69393;SHT31;56582;44.624;20.378;2023-02-08T04:55:30;-3.04;83.02
69393;SHT31;56582;44.624;20.378;2023-02-08T04:57:56;-2.96;83.37
69393;SHT31;56582;44.624;20.378;2023-02-08T05:00:22;-2.61;90.36
69393;SHT31;56582;44.624;20.378;2023-02-08T05:02:52;-2.68;86.86
69393;SHT31;56582;44.624;20.378;2023-02-08T05:05:17;-1.76;93.61
69393;SHT31;56582;44.624;20.378;2023-02-08T05:07:42;-0.80;94.62
69393;SHT31;56582;44.624;20.378;2023-02-08T05:10:08;-2.20;84.19
69393;SHT31;56582;44.624;20.378;2023-02-08T05:12:33;-2.15;86.40
69393;SHT31;56582;44.624;20.378;2023-02-08T05:14:59;-2.06;85.52
69393;SHT31;56582;44.624;20.378;2023-02-08T05:17:24;-2.59;82.89
69393;SHT31;56582;44.624;20.378;2023-02-08T05:19:50;-2.82;84.08
69393;SHT31;56582;44.624;20.378;2023-02-08T05:22:15;-2.09;91.65
69393;SHT31;56582;44.624;20.378;2023-02-08T05:24:41;-2.26;86.30
69393;SHT31;56582;44.624;20.378;2023-02-08T05:27:06;-2.54;82.97
69393;SHT31;56582;44.624;20.378;2023-02-08T05:29:32;-3.06;81.98
69393;SHT31;56582;44.624;20.378;2023-02-08T05:31:57;-3.40;84.05
69393;SHT31;56582;44.624;20.378;2023-02-08T05:34:22;-3.55;84.26
69393;SHT31;56582;44.624;20.378;2023-02-08T05:36:48;-3.37;83.91
69393;SHT31;56582;44.624;20.378;2023-02-08T05:39:13;-3.17;83.32
69393;SHT31;56582;44.624;20.378;2023-02-08T05:41:39;-3.61;84.15
69393;SHT31;56582;44.624;20.378;2023-02-08T05:44:04;-3.64;84.96
69393;SHT31;56582;44.624;20.378;2023-02-08T05:46:30;-3.51;85.03
69393;SHT31;56582;44.624;20.378;2023-02-08T05:48:55;-3.58;84.58
69393;SHT31;56582;44.624;20.378;2023-02-08T05:51:20;-3.67;84.60
69393;SHT31;56582;44.624;20.378;2023-02-08T05:53:46;-3.62;84.86
69393;SHT31;56582;44.624;20.378;2023-02-08T05:56:11;-3.36;84.30
69393;SHT31;56582;44.624;20.378;2023-02-08T05:58:37;-3.40;83.80
69393;SHT31;56582;44.624;20.378;2023-02-08T06:01:10;-3.09;82.65
69393;SHT31;56582;44.624;20.378;2023-02-08T06:03:36;-3.18;83.09
69393;SHT31;56582;44.624;20.378;2023-02-08T06:06:02;-3.13;82.94
69393;SHT31;56582;44.624;20.378;2023-02-08T06:08:27;-3.20;82.54
69393;SHT31;56582;44.624;20.378;2023-02-08T06:10:53;-3.34;83.24
69393;SHT31;56582;44.624;20.378;2023-02-08T06:13:18;-3.54;84.11
69393;SHT31;56582;44.624;20.378;2023-02-08T06:15:44;-3.28;83.53
69393;SHT31;56582;44.624;20.378;2023-02-08T06:18:09;-3.52;83.43
69393;SHT31;56582;44.624;20.378;2023-02-08T06:20:36;-3.59;84.27
69393;SHT31;56582;44.624;20.378;2023-02-08T06:23:01;-3.38;84.24
69393;SHT31;56582;44.624;20.378;2023-02-08T06:25:27;-3.61;84.69
69393;SHT31;56582;44.624;20.378;2023-02-08T06:27:52;-3.88;85.44
69393;SHT31;56582;44.624;20.378;2023-02-08T06:30:18;-3.78;87.79
69393;SHT31;56582;44.624;20.378;2023-02-08T06:32:43;-3.75;86.64
69393;SHT31;56582;44.624;20.378;2023-02-08T06:35:09;-3.59;86.11
69393;SHT31;56582;44.624;20.378;2023-02-08T06:37:34;-3.26;85.35
69393;SHT31;56582;44.624;20.378;2023-02-08T06:40:06;-2.89;82.61
69393;SHT31;56582;44.624;20.378;2023-02-08T06:42:31;-3.13;82.62
69393;SHT31;56582;44.624;20.378;2023-02-08T06:44:57;-3.48;83.88
69393;SHT31;56582;44.624;20.378;2023-02-08T06:47:24;-3.33;83.77
69393;SHT31;56582;44.624;20.378;2023-02-08T06:49:51;-3.43;83.94
69393;SHT31;56582;44.624;20.378;2023-02-08T06:52:17;-3.13;83.04
69393;SHT31;56582;44.624;20.378;2023-02-08T06:54:43;-3.30;83.52
69393;SHT31;56582;44.624;20.378;2023-02-08T06:57:44;-3.16;82.96
69393;SHT31;56582;44.624;20.378;2023-02-08T07:00:18;-2.93;82.72
69393;SHT31;56582;44.624;20.378;2023-02-08T07:02:44;-2.92;82.35
69393;SHT31;56582;44.624;20.378;2023-02-08T07:05:14;-3.27;83.24
69393;SHT31;56582;44.624;20.378;2023-02-08T07:07:49;-3.23;83.17
69393;SHT31;56582;44.624;20.378;2023-02-08T07:13:37;-2.59;81.43
69393;SHT31;56582;44.624;20.378;2023-02-08T07:16:04;-2.68;80.93
69393;SHT31;56582;44.624;20.378;2023-02-08T07:18:29;-2.76;81.20
69393;SHT31;56582;44.624;20.378;2023-02-08T07:20:55;-2.96;81.96
69393;SHT31;56582;44.624;20.378;2023-02-08T07:23:20;-2.97;82.45
69393;SHT31;56582;44.624;20.378;2023-02-08T07:26:04;-2.70;81.73
69393;SHT31;56582;44.624;20.378;2023-02-08T07:28:30;-2.69;81.84
69393;SHT31;56582;44.624;20.378;2023-02-08T07:30:56;-2.59;81.39
69393;SHT31;56582;44.624;20.378;2023-02-08T07:33:24;-2.59;80.72
69393;SHT31;56582;44.624;20.378;2023-02-08T07:35:52;-2.47;80.88
69393;SHT31;56582;44.624;20.378;2023-02-08T07:41:39;-2.31;80.68
69393;SHT31;56582;44.624;20.378;2023-02-08T07:44:05;-2.21;79.76
69393;SHT31;56582;44.624;20.378;2023-02-08T07:46:31;-2.10;79.92
69393;SHT31;56582;44.624;20.378;2023-02-08T07:48:57;-2.26;80.35
69393;SHT31;56582;44.624;20.378;2023-02-08T07:51:22;-2.20;80.16
69393;SHT31;56582;44.624;20.378;2023-02-08T07:53:48;-1.91;80.25
69393;SHT31;56582;44.624;20.378;2023-02-08T07:56:13;-1.73;79.20
69393;SHT31;56582;44.624;20.378;2023-02-08T07:58:39;-2.04;80.16
69393;SHT31;56582;44.624;20.378;2023-02-08T08:01:04;-1.99;80.18
69393;SHT31;56582;44.624;20.378;2023-02-08T08:03:30;-1.75;79.10
69393;SHT31;56582;44.624;20.378;2023-02-08T08:05:55;-1.58;77.63
69393;SHT31;56582;44.624;20.378;2023-02-08T08:08:21;-1.58;77.88
69393;SHT31;56582;44.624;20.378;2023-02-08T08:10:46;-1.69;79.75
69393;SHT31;56582;44.624;20.378;2023-02-08T08:13:12;-1.54;78.87
69393;SHT31;56582;44.624;20.378;2023-02-08T08:15:38;-1.48;78.14
69393;SHT31;56582;44.624;20.378;2023-02-08T08:18:04;-1.54;77.56
69393;SHT31;56582;44.624;20.378;2023-02-08T08:20:30;-1.24;77.87
69393;SHT31;56582;44.624;20.378;2023-02-08T08:22:56;-1.04;77.06
69393;SHT31;56582;44.624;20.378;2023-02-08T08:25:22;-1.11;77.97
69393;SHT31;56582;44.624;20.378;2023-02-08T08:27:47;-0.79;77.55
69393;SHT31;56582;44.624;20.378;2023-02-08T08:30:15;-0.70;76.01
69393;SHT31;56582;44.624;20.378;2023-02-08T08:32:41;-0.69;76.00
69393;SHT31;56582;44.624;20.378;2023-02-08T08:35:06;-0.72;75.36
69393;SHT31;56582;44.624;20.378;2023-02-08T08:37:33;-0.79;75.36
69393;SHT31;56582;44.624;20.378;2023-02-08T08:39:59;-0.80;76.04
69393;SHT31;56582;44.624;20.378;2023-02-08T08:42:24;-0.65;75.87
69393;SHT31;56582;44.624;20.378;2023-02-08T08:44:51;-0.41;74.29
69393;SHT31;56582;44.624;20.378;2023-02-08T08:47:17;-0.25;74.05
69393;SHT31;56582;44.624;20.378;2023-02-08T08:49:43;-0.35;74.10
69393;SHT31;56582;44.624;20.378;2023-02-08T08:52:09;-0.28;74.66
69393;SHT31;56582;44.624;20.378;2023-02-08T08:54:34;-0.36;75.05
69393;SHT31;56582;44.624;20.378;2023-02-08T08:57:00;-0.08;74.12
69393;SHT31;56582;44.624;20.378;2023-02-08T08:59:26;0.10;73.63
69393;SHT31;56582;44.624;20.378;2023-02-08T09:01:51;0.34;73.59
69393;SHT31;56582;44.624;20.378;2023-02-08T09:04:17;0.57;73.13
69393;SHT31;56582;44.624;20.378;2023-02-08T09:06:43;0.60;72.32
69393;SHT31;56582;44.624;20.378;2023-02-08T09:09:08;0.00;73.30
69393;SHT31;56582;44.624;20.378;2023-02-08T09:11:34;0.00;74.02
69393;SHT31;56582;44.624;20.378;2023-02-08T09:14:03;-0.25;74.23
69393;SHT31;56582;44.624;20.378;2023-02-08T09:16:29;-0.02;73.33
69393;SHT31;56582;44.624;20.378;2023-02-08T09:18:54;-0.15;74.51
69393;SHT31;56582;44.624;20.378;2023-02-08T09:21:22;0.09;73.96
69393;SHT31;56582;44.624;20.378;2023-02-08T09:23:49;0.14;73.39
69393;SHT31;56582;44.624;20.378;2023-02-08T09:26:16;0.21;73.28
69393;SHT31;56582;44.624;20.378;2023-02-08T09:28:45;0.24;74.49
69393;SHT31;56582;44.624;20.378;2023-02-08T09:31:22;0.27;74.17
69393;SHT31;56582;44.624;20.378;2023-02-08T09:33:49;0.78;71.91
69393;SHT31;56582;44.624;20.378;2023-02-08T09:36:14;0.72;72.57
69393;SHT31;56582;44.624;20.378;2023-02-08T09:38:40;0.89;72.17
69393;SHT31;56582;44.624;20.378;2023-02-08T09:41:28;0.48;72.57
69393;SHT31;56582;44.624;20.378;2023-02-08T09:47:27;0.31;72.72
69393;SHT31;56582;44.624;20.378;2023-02-08T09:52:28;0.75;71.50
69393;SHT31;56582;44.624;20.378;2023-02-08T09:54:58;1.16;71.45
69393;SHT31;56582;44.624;20.378;2023-02-08T09:57:29;0.75;70.81
69393;SHT31;56582;44.624;20.378;2023-02-08T10:00:14;0.38;72.11
69393;SHT31;56582;44.624;20.378;2023-02-08T10:02:42;0.62;71.60
69393;SHT31;56582;44.624;20.378;2023-02-08T10:05:19;0.54;72.86
69393;SHT31;56582;44.624;20.378;2023-02-08T10:07:45;0.89;71.75
69393;SHT31;56582;44.624;20.378;2023-02-08T10:10:15;1.23;69.51
69393;SHT31;56582;44.624;20.378;2023-02-08T10:15:35;1.05;69.38
69393;SHT31;56582;44.624;20.378;2023-02-08T10:32:06;1.44;68.74
69393;SHT31;56582;44.624;20.378;2023-02-08T10:37:17;1.29;68.39
69393;SHT31;56582;44.624;20.378;2023-02-08T10:39:44;1.15;68.10
69393;SHT31;56582;44.624;20.378;2023-02-08T10:42:13;1.35;68.30
69393;SHT31;56582;44.624;20.378;2023-02-08T10:47:19;1.61;69.42
69393;SHT31;56582;44.624;20.378;2023-02-08T10:50:00;1.71;67.34
69393;SHT31;56582;44.624;20.378;2023-02-08T10:52:26;1.70;67.93
69393;SHT31;56582;44.624;20.378;2023-02-08T10:54:53;1.84;67.71
69393;SHT31;56582;44.624;20.378;2023-02-08T10:57:24;1.77;67.81
69393;SHT31;56582;44.624;20.378;2023-02-08T10:59:58;1.85;67.49
69393;SHT31;56582;44.624;20.378;2023-02-08T11:02:28;1.20;66.52
69393;SHT31;56582;44.624;20.378;2023-02-08T11:05:02;1.46;67.71
69393;SHT31;56582;44.624;20.378;2023-02-08T11:07:28;1.50;68.84
69393;SHT31;56582;44.624;20.378;2023-02-08T11:15:51;1.70;67.41
69393;SHT31;56582;44.624;20.378;2023-02-08T11:20:59;1.50;68.34
69393;SHT31;56582;44.624;20.378;2023-02-08T11:23:33;1.17;68.69
69393;SHT31;56582;44.624;20.378;2023-02-08T11:26:22;1.33;68.35
69393;SHT31;56582;44.624;20.378;2023-02-08T11:29:27;1.60;67.29
69393;SHT31;56582;44.624;20.378;2023-02-08T11:32:13;1.91;67.75
69393;SHT31;56582;44.624;20.378;2023-02-08T11:34:39;1.86;67.67
69393;SHT31;56582;44.624;20.378;2023-02-08T11:39:49;2.06;67.10
69393;SHT31;56582;44.624;20.378;2023-02-08T11:42:38;1.91;66.84
69393;SHT31;56582;44.624;20.378;2023-02-08T11:45:06;1.94;65.49
69393;SHT31;56582;44.624;20.378;2023-02-08T11:47:33;1.78;66.86
69393;SHT31;56582;44.624;20.378;2023-02-08T11:50:07;1.78;66.83
69393;SHT31;56582;44.624;20.378;2023-02-08T11:52:38;1.54;65.30
69393;SHT31;56582;44.624;20.378;2023-02-08T12:00:32;2.18;65.57
69393;SHT31;56582;44.624;20.378;2023-02-08T12:03:20;2.11;65.24
69393;SHT31;56582;44.624;20.378;2023-02-08T12:06:45;2.50;65.45
69393;SHT31;56582;44.624;20.378;2023-02-08T12:11:42;2.91;63.42
69393;SHT31;56582;44.624;20.378;2023-02-08T12:16:54;2.81;64.35
69393;SHT31;56582;44.624;20.378;2023-02-08T12:20:01;2.53;63.60
69393;SHT31;56582;44.624;20.378;2023-02-08T12:22:31;2.34;64.71
69393;SHT31;56582;44.624;20.378;2023-02-08T12:25:21;2.28;65.57
69393;SHT31;56582;44.624;20.378;2023-02-08T12:30:38;2.28;64.08
69393;SHT31;56582;44.624;20.378;2023-02-08T12:50:21;3.11;62.88
69393;SHT31;56582;44.624;20.378;2023-02-08T12:52:54;2.94;62.91
69393;SHT31;56582;44.624;20.378;2023-02-08T12:55:28;2.81;62.75
69393;SHT31;56582;44.624;20.378;2023-02-08T12:58:14;2.76;62.01
69393;SHT31;56582;44.624;20.378;2023-02-08T13:00:45;2.81;62.86
69393;SHT31;56582;44.624;20.378;2023-02-08T13:06:16;2.74;62.85
69393;SHT31;56582;44.624;20.378;2023-02-08T13:08:46;2.58;61.94
69393;SHT31;56582;44.624;20.378;2023-02-08T13:11:23;2.84;63.29
69393;SHT31;56582;44.624;20.378;2023-02-08T13:14:20;2.85;61.36
69393;SHT31;56582;44.624;20.378;2023-02-08T13:16:53;2.93;58.57
69393;SHT31;56582;44.624;20.378;2023-02-08T13:21:45;2.68;59.78
69393;SHT31;56582;44.624;20.378;2023-02-08T13:24:33;3.02;59.35
69393;SHT31;56582;44.624;20.378;2023-02-08T13:26:59;2.91;60.51
69393;SHT31;56582;44.624;20.378;2023-02-08T13:29:25;2.85;59.96
69393;SHT31;56582;44.624;20.378;2023-02-08T13:32:17;2.83;61.01
69393;SHT31;56582;44.624;20.378;2023-02-08T13:34:52;2.98;60.95
69393;SHT31;56582;44.624;20.378;2023-02-08T13:37:27;3.28;58.81
69393;SHT31;56582;44.624;20.378;2023-02-08T13:40:21;3.15;60.04
69393;SHT31;56582;44.624;20.378;2023-02-08T13:43:03;3.07;59.63
69393;SHT31;56582;44.624;20.378;2023-02-08T13:45:41;2.85;58.92
69393;SHT31;56582;44.624;20.378;2023-02-08T13:48:10;2.76;58.56
69393;SHT31;56582;44.624;20.378;2023-02-08T13:50:48;2.83;58.07
69393;SHT31;56582;44.624;20.378;2023-02-08T13:53:16;2.76;59.34
69393;SHT31;56582;44.624;20.378;2023-02-08T13:55:55;2.53;58.67
69393;SHT31;56582;44.624;20.378;2023-02-08T14:03:25;2.32;60.34
69393;SHT31;56582;44.624;20.378;2023-02-08T14:06:01;2.30;60.33
69393;SHT31;56582;44.624;20.378;2023-02-08T14:13:48;1.97;62.05
69393;SHT31;56582;44.624;20.378;2023-02-08T14:18:59;1.89;62.17
69393;SHT31;56582;44.624;20.378;2023-02-08T14:21:45;2.01;61.46
69393;SHT31;56582;44.624;20.378;2023-02-08T14:27:41;1.79;60.14
69393;SHT31;56582;44.624;20.378;2023-02-08T14:32:46;2.02;59.50
69393;SHT31;56582;44.624;20.378;2023-02-08T14:37:39;1.85;60.80
69393;SHT31;56582;44.624;20.378;2023-02-08T14:50:29;2.12;59.89
69393;SHT31;56582;44.624;20.378;2023-02-08T14:53:03;1.97;61.59
69393;SHT31;56582;44.624;20.378;2023-02-08T14:55:36;1.99;60.59
69393;SHT31;56582;44.624;20.378;2023-02-08T14:58:04;2.08;60.82
69393;SHT31;56582;44.624;20.378;2023-02-08T15:00:34;2.11;61.26
69393;SHT31;56582;44.624;20.378;2023-02-08T15:03:00;2.16;61.06
69393;SHT31;56582;44.624;20.378;2023-02-08T15:05:37;2.21;62.10
69393;SHT31;56582;44.624;20.378;2023-02-08T15:08:05;2.15;60.63
69393;SHT31;56582;44.624;20.378;2023-02-08T15:10:31;1.94;59.09
69393;SHT31;56582;44.624;20.378;2023-02-08T15:12:58;1.91;60.95
69393;SHT31;56582;44.624;20.378;2023-02-08T15:15:36;1.77;63.36
69393;SHT31;56582;44.624;20.378;2023-02-08T15:18:05;1.86;62.40
69393;SHT31;56582;44.624;20.378;2023-02-08T15:20:33;1.82;61.87
69393;SHT31;56582;44.624;20.378;2023-02-08T15:25:42;1.30;62.66
69393;SHT31;56582;44.624;20.378;2023-02-08T15:28:19;1.26;62.36
69393;SHT31;56582;44.624;20.378;2023-02-08T15:30:52;0.98;63.98
69393;SHT31;56582;44.624;20.378;2023-02-08T15:33:18;0.84;65.05
69393;SHT31;56582;44.624;20.378;2023-02-08T15:36:04;0.88;66.09
69393;SHT31;56582;44.624;20.378;2023-02-08T15:38:30;0.72;66.52
69393;SHT31;56582;44.624;20.378;2023-02-08T15:41:08;0.62;67.28
69393;SHT31;56582;44.624;20.378;2023-02-08T15:43:35;0.48;68.89
69393;SHT31;56582;44.624;20.378;2023-02-08T15:46:03;0.38;69.40
69393;SHT31;56582;44.624;20.378;2023-02-08T15:48:31;0.40;69.83
69393;SHT31;56582;44.624;20.378;2023-02-08T15:50:58;0.71;78.88
69393;SHT31;56582;44.624;20.378;2023-02-08T15:53:25;0.62;69.12
69393;SHT31;56582;44.624;20.378;2023-02-08T15:55:57;0.89;71.23
69393;SHT31;56582;44.624;20.378;2023-02-08T15:58:38;0.99;75.13
69393;SHT31;56582;44.624;20.378;2023-02-08T16:01:06;0.95;68.45
69393;SHT31;56582;44.624;20.378;2023-02-08T16:03:33;0.85;68.22
69393;SHT31;56582;44.624;20.378;2023-02-08T16:06:04;0.68;68.61
69393;SHT31;56582;44.624;20.378;2023-02-08T16:08:33;0.54;68.44
69393;SHT31;56582;44.624;20.378;2023-02-08T16:13:34;0.69;68.76
69393;SHT31;56582;44.624;20.378;2023-02-08T16:18:45;0.24;70.14
69393;SHT31;56582;44.624;20.378;2023-02-08T16:23:56;0.21;70.51
69393;SHT31;56582;44.624;20.378;2023-02-08T16:26:25;0.10;76.51
69393;SHT31;56582;44.624;20.378;2023-02-08T16:29:18;1.79;86.12
69393;SHT31;56582;44.624;20.378;2023-02-08T16:31:46;1.57;82.61
69393;SHT31;56582;44.624;20.378;2023-02-08T16:34:17;1.10;73.28
69393;SHT31;56582;44.624;20.378;2023-02-08T16:36:47;0.64;69.31
69393;SHT31;56582;44.624;20.378;2023-02-08T16:44:27;-0.23;70.88
69393;SHT31;56582;44.624;20.378;2023-02-08T16:46:55;-0.18;70.08
69393;SHT31;56582;44.624;20.378;2023-02-08T16:49:20;-0.10;70.40
69393;SHT31;56582;44.624;20.378;2023-02-08T16:51:46;-0.12;69.67
69393;SHT31;56582;44.624;20.378;2023-02-08T16:54:17;-0.23;69.77
69393;SHT31;56582;44.624;20.378;2023-02-08T16:56:44;-0.18;69.07
69393;SHT31;56582;44.624;20.378;2023-02-08T16:59:14;-0.43;70.04
69393;SHT31;56582;44.624;20.378;2023-02-08T17:01:41;-0.53;70.23
69393;SHT31;56582;44.624;20.378;2023-02-08T17:04:11;-0.36;69.92
69393;SHT31;56582;44.624;20.378;2023-02-08T17:06:37;-0.63;70.53
69393;SHT31;56582;44.624;20.378;2023-02-08T17:09:06;-0.77;71.30
69393;SHT31;56582;44.624;20.378;2023-02-08T17:11:32;-0.83;70.84
69393;SHT31;56582;44.624;20.378;2023-02-08T17:13:58;-0.79;71.43
69393;SHT31;56582;44.624;20.378;2023-02-08T17:16:26;-0.77;71.07
69393;SHT31;56582;44.624;20.378;2023-02-08T17:18:52;-0.97;71.16
69393;SHT31;56582;44.624;20.378;2023-02-08T17:21:18;-0.97;71.80
69393;SHT31;56582;44.624;20.378;2023-02-08T17:23:44;-0.96;71.70
69393;SHT31;56582;44.624;20.378;2023-02-08T17:26:22;-1.03;71.54
69393;SHT31;56582;44.624;20.378;2023-02-08T17:28:54;-1.03;71.68
69393;SHT31;56582;44.624;20.378;2023-02-08T17:31:20;-1.04;71.89
69393;SHT31;56582;44.624;20.378;2023-02-08T17:33:46;-1.21;72.30
69393;SHT31;56582;44.624;20.378;2023-02-08T17:36:14;-1.31;72.73
69393;SHT31;56582;44.624;20.378;2023-02-08T17:38:41;-1.45;73.35
69393;SHT31;56582;44.624;20.378;2023-02-08T17:41:15;-1.21;72.65
69393;SHT31;56582;44.624;20.378;2023-02-08T17:43:41;-1.25;72.63
69393;SHT31;56582;44.624;20.378;2023-02-08T17:46:09;-1.38;72.76
69393;SHT31;56582;44.624;20.378;2023-02-08T17:48:34;-1.39;73.33
69393;SHT31;56582;44.624;20.378;2023-02-08T17:51:00;-1.45;72.97
69393;SHT31;56582;44.624;20.378;2023-02-08T17:53:25;-1.44;73.09
69393;SHT31;56582;44.624;20.378;2023-02-08T17:55:51;-1.48;73.37
69393;SHT31;56582;44.624;20.378;2023-02-08T17:58:16;-1.49;73.39
69393;SHT31;56582;44.624;20.378;2023-02-08T18:00:42;-1.45;73.50
69393;SHT31;56582;44.624;20.378;2023-02-08T18:03:07;-1.48;73.63
69393;SHT31;56582;44.624;20.378;2023-02-08T18:05:33;-1.47;73.50
69393;SHT31;56582;44.624;20.378;2023-02-08T18:07:58;-1.44;73.30
69393;SHT31;56582;44.624;20.378;2023-02-08T18:10:24;-1.56;73.81
69393;SHT31;56582;44.624;20.378;2023-02-08T18:12:50;-1.66;73.55
69393;SHT31;56582;44.624;20.378;2023-02-08T18:15:18;-1.54;73.75
69393;SHT31;56582;44.624;20.378;2023-02-08T18:17:45;-1.58;73.69
69393;SHT31;56582;44.624;20.378;2023-02-08T18:20:12;-1.49;73.79